Time;durP1;ratioP1;P1;durP2;ratioP2;P2;SDS_P1;SDS_P2;PMS_P1;PMS_P2;Temp;Humidity;BMP_temperature;BMP_pressure;BME280_temperature;BME280_humidity;BME280_pressure;Samples;Min_cycle;Max_cycle;Signal;HPM_P1;HPM_P2
2024/01/23 00:01:18;;;;;;;35.75;18.05;;;0.30;1.00;;;;;;5298731;27;20132;-43
2024/01/23 00:03:49;;;;;;;40.10;18.65;;;0.40;1.00;;;;;;5288432;27;20031;-43
2024/01/23 00:06:25;;;;;;;35.20;19.02;;;0.50;1.00;;;;;;5297527;27;20027;-42
2024/01/23 00:08:59;;;;;;;35.30;18.08;;;0.60;1.00;;;;;;5301028;27;20015;-42
2024/01/23 00:11:33;;;;;;;42.45;20.67;;;0.70;1.00;;;;;;5301739;27;20031;-42
2024/01/23 00:14:09;;;;;;;38.90;19.48;;;0.70;1.00;;;;;;5302844;27;20348;-42
2024/01/23 00:16:42;;;;;;;38.20;19.65;;;1.00;1.00;;;;;;5298865;27;20297;-43
2024/01/23 00:19:16;;;;;;;41.58;21.52;;;1.20;1.00;;;;;;5283669;27;21178;-43
2024/01/23 00:21:48;;;;;;;36.20;19.08;;;1.50;1.00;;;;;;5279350;27;20027;-42
2024/01/23 00:24:21;;;;;;;35.15;18.48;;;1.70;1.00;;;;;;5294311;27;20272;-42
2024/01/23 00:26:52;;;;;;;44.08;20.52;;;1.60;1.00;;;;;;5285544;27;20174;-42
2024/01/23 00:29:26;;;;;;;43.72;20.33;;;1.60;1.00;;;;;;5288564;27;20347;-42
2024/01/23 00:32:00;;;;;;;38.58;19.98;;;1.40;1.00;;;;;;5290119;27;20027;-41
2024/01/23 00:34:36;;;;;;;39.60;19.42;;;1.40;1.00;;;;;;5285165;27;20035;-42
2024/01/23 00:37:09;;;;;;;38.28;20.00;;;1.30;1.00;;;;;;5296752;27;20204;-42
2024/01/23 00:39:46;;;;;;;49.83;22.05;;;1.20;1.00;;;;;;5301670;27;20298;-42
2024/01/23 00:42:20;;;;;;;36.03;21.05;;;1.10;1.00;;;;;;5283496;27;20031;-41
2024/01/23 00:44:53;;;;;;;41.72;21.20;;;0.90;1.00;;;;;;5263188;28;20028;-42
2024/01/23 00:47:32;;;;;;;37.37;19.53;;;0.90;1.00;;;;;;5294898;27;20019;-42
2024/01/23 00:50:06;;;;;;;40.08;20.52;;;0.80;1.00;;;;;;5268839;28;20270;-42
2024/01/23 00:52:40;;;;;;;42.33;21.42;;;0.80;1.00;;;;;;5279057;27;20039;-42
2024/01/23 00:55:13;;;;;;;39.63;21.92;;;0.70;1.00;;;;;;5297581;27;20042;-44
2024/01/23 00:57:44;;;;;;;39.15;20.00;;;0.60;1.00;;;;;;5261855;28;20050;-42
2024/01/23 01:00:15;;;;;;;39.22;20.10;;;0.60;1.00;;;;;;5289875;27;20049;-43
2024/01/23 01:02:47;;;;;;;41.33;21.73;;;0.70;1.00;;;;;;5302087;28;20057;-41
2024/01/23 01:05:22;;;;;;;38.70;20.50;;;0.80;1.00;;;;;;5272020;28;20223;-42
2024/01/23 01:07:55;;;;;;;39.95;23.05;;;1.10;1.00;;;;;;5272684;28;20558;-42
2024/01/23 01:10:26;;;;;;;44.67;23.13;;;1.20;1.00;;;;;;5281688;27;20123;-42
2024/01/23 01:13:03;;;;;;;42.95;21.95;;;1.20;1.00;;;;;;5289087;28;20133;-42
2024/01/23 01:15:34;;;;;;;45.22;21.77;;;1.30;1.00;;;;;;5294282;28;20038;-43
2024/01/23 01:18:07;;;;;;;40.92;20.38;;;1.30;1.00;;;;;;5275731;28;20125;-42
2024/01/23 01:20:39;;;;;;;41.67;22.10;;;1.50;1.00;;;;;;5279319;28;20037;-42
2024/01/23 01:23:10;;;;;;;38.40;21.65;;;1.30;1.00;;;;;;5286702;27;20353;-43
2024/01/23 01:25:45;;;;;;;43.47;21.33;;;1.20;1.00;;;;;;5280857;27;20027;-42
2024/01/23 01:28:16;;;;;;;35.70;20.92;;;0.80;1.00;;;;;;5302341;27;20027;-43
2024/01/23 01:30:47;;;;;;;38.42;20.80;;;0.70;1.00;;;;;;5299388;27;20027;-43
2024/01/23 01:33:19;;;;;;;37.15;22.35;;;0.60;1.00;;;;;;5305631;27;20019;-42
2024/01/23 01:35:53;;;;;;;41.03;22.02;;;0.60;1.00;;;;;;5306092;27;20023;-42
2024/01/23 01:38:28;;;;;;;38.60;21.70;;;0.50;1.00;;;;;;5305181;27;20090;-43
2024/01/23 01:41:00;;;;;;;39.50;20.20;;;0.40;1.00;;;;;;5279038;27;20157;-43
2024/01/23 01:43:39;;;;;;;36.75;21.00;;;0.50;1.00;;;;;;5301595;27;20377;-43
2024/01/23 01:46:26;;;;;;;43.97;22.02;;;0.50;1.00;;;;;;5286906;27;20261;-43
2024/01/23 01:49:01;;;;;;;40.33;21.85;;;0.40;1.00;;;;;;5305872;27;20222;-42
2024/01/23 01:51:32;;;;;;;43.45;22.52;;;0.40;1.00;;;;;;5304438;27;20206;-42
2024/01/23 01:54:07;;;;;;;46.33;23.25;;;0.50;1.00;;;;;;5286177;27;20335;-43
2024/01/23 01:56:43;;;;;;;36.97;21.73;;;0.40;1.00;;;;;;5292595;27;20223;-43
2024/01/23 01:59:14;;;;;;;39.72;20.98;;;0.40;1.00;;;;;;5291394;27;20035;-43
2024/01/23 02:01:47;;;;;;;40.30;21.45;;;0.70;1.00;;;;;;5302342;27;20021;-43
2024/01/23 02:04:20;;;;;;;44.97;23.35;;;0.90;1.00;;;;;;5286654;27;20348;-42
2024/01/23 02:06:55;;;;;;;42.80;22.05;;;1.00;1.00;;;;;;5305342;27;20015;-43
2024/01/23 02:09:33;;;;;;;40.28;22.05;;;1.10;1.00;;;;;;5303463;27;20294;-42
2024/01/23 02:12:07;;;;;;;40.35;21.55;;;1.00;1.00;;;;;;5277646;28;20283;-43
2024/01/23 02:14:42;;;;;;;38.80;21.90;;;1.10;1.00;;;;;;5280123;27;20035;-42
2024/01/23 02:17:13;;;;;;;41.55;20.65;;;0.90;1.00;;;;;;5293796;27;20038;-43
2024/01/23 02:19:50;;;;;;;41.35;21.73;;;1.00;1.00;;;;;;5283048;27;20015;-42
2024/01/23 02:22:26;;;;;;;39.60;20.23;;;0.90;1.00;;;;;;5282681;27;20180;-43
2024/01/23 02:25:02;;;;;;;38.40;21.73;;;0.70;1.00;;;;;;5302008;27;20031;-43
2024/01/23 02:27:36;;;;;;;40.53;22.10;;;0.60;1.00;;;;;;5302374;27;20015;-43
2024/01/23 02:30:08;;;;;;;37.00;20.85;;;0.60;1.00;;;;;;5279592;27;20027;-43
2024/01/23 02:32:48;;;;;;;39.95;21.00;;;0.80;1.00;;;;;;5270241;27;20628;-43
2024/01/23 02:35:21;;;;;;;41.70;21.85;;;1.00;1.00;;;;;;5301395;27;20364;-42
2024/01/23 02:37:54;;;;;;;38.47;21.17;;;0.90;1.00;;;;;;5304970;27;20349;-43
2024/01/23 02:40:26;;;;;;;44.42;21.77;;;0.90;1.00;;;;;;5303855;27;20475;-44
2024/01/23 02:43:00;;;;;;;43.08;22.55;;;0.90;1.00;;;;;;5305055;27;20308;-43
2024/01/23 02:45:37;;;;;;;37.42;20.58;;;1.00;1.00;;;;;;5301889;27;20031;-43
2024/01/23 02:48:13;;;;;;;44.80;22.17;;;0.90;1.00;;;;;;5296889;27;20023;-42
2024/01/23 02:50:48;;;;;;;41.30;22.60;;;0.70;1.00;;;;;;5296210;27;20233;-43
2024/01/23 02:53:21;;;;;;;45.25;21.85;;;0.60;1.00;;;;;;5295783;27;20061;-42
2024/01/23 02:55:55;;;;;;;41.90;21.50;;;0.50;1.00;;;;;;5296332;27;20031;-44
2024/01/23 02:58:26;;;;;;;35.42;19.38;;;0.50;1.00;;;;;;5303645;27;20111;-43
2024/01/23 03:00:58;;;;;;;47.33;22.92;;;0.50;1.00;;;;;;5300484;27;20061;-42
2024/01/23 03:03:29;;;;;;;44.78;22.20;;;0.40;1.00;;;;;;5284818;27;20019;-43
2024/01/23 03:06:07;;;;;;;49.33;23.67;;;0.30;1.00;;;;;;5288208;27;20215;-43
2024/01/23 03:08:43;;;;;;;47.65;24.50;;;0.20;1.00;;;;;;5288694;27;20324;-43
2024/01/23 03:11:14;;;;;;;44.67;23.42;;;0.20;1.00;;;;;;5302274;27;20243;-43
2024/01/23 03:13:48;;;;;;;39.90;21.98;;;0.10;1.00;;;;;;5292085;27;20023;-43
2024/01/23 03:16:21;;;;;;;41.60;20.70;;;0.10;1.00;;;;;;5256630;27;20031;-43
2024/01/23 03:18:52;;;;;;;45.53;21.35;;;0.10;1.00;;;;;;5304745;27;20287;-43
2024/01/23 03:21:24;;;;;;;45.13;23.10;;;0.10;1.00;;;;;;5301361;27;20045;-44
2024/01/23 03:23:58;;;;;;;44.70;23.13;;;0.10;1.00;;;;;;5302881;27;20034;-46
2024/01/23 03:26:29;;;;;;;43.67;22.67;;;0.00;1.00;;;;;;5296351;27;20031;-44
2024/01/23 03:29:02;;;;;;;45.33;22.67;;;0.00;1.00;;;;;;5301072;27;20169;-44
2024/01/23 03:31:33;;;;;;;44.17;22.17;;;0.00;1.00;;;;;;5286496;27;20238;-43
2024/01/23 03:34:07;;;;;;;49.65;25.50;;;0.10;1.00;;;;;;5299754;27;20349;-44
2024/01/23 03:36:38;;;;;;;32.88;19.33;;;-0.10;1.00;;;;;;5284160;27;20404;-44
2024/01/23 03:39:12;;;;;;;47.80;24.20;;;-0.10;1.00;;;;;;5301691;27;20310;-43
2024/01/23 03:41:45;;;;;;;53.08;25.92;;;-0.30;1.00;;;;;;5302822;27;20026;-43
2024/01/23 03:44:16;;;;;;;46.83;24.33;;;-0.30;1.00;;;;;;5302976;27;20053;-44
2024/01/23 03:46:48;;;;;;;43.95;23.05;;;-0.30;1.00;;;;;;5272193;27;20430;-44
2024/01/23 03:49:22;;;;;;;49.78;25.20;;;-0.30;1.00;;;;;;5284684;27;20032;-43
2024/01/23 03:51:54;;;;;;;49.83;26.23;;;-0.30;1.00;;;;;;5289243;27;20043;-43
2024/01/23 03:54:35;;;;;;;46.80;24.98;;;-0.40;1.00;;;;;;5291026;27;20353;-44
2024/01/23 03:57:06;;;;;;;51.08;25.88;;;-0.30;1.00;;;;;;5299934;27;20248;-43
2024/01/23 03:59:45;;;;;;;50.97;26.70;;;-0.40;1.00;;;;;;5274323;27;20046;-43
2024/01/23 04:02:16;;;;;;;55.75;24.05;;;-0.50;1.00;;;;;;5299839;27;20027;-43
2024/01/23 04:04:47;;;;;;;51.47;25.85;;;-0.60;1.00;;;;;;5300077;27;20214;-43
2024/01/23 04:07:21;;;;;;;50.88;25.30;;;-0.60;1.00;;;;;;5284512;27;20043;-42
2024/01/23 04:09:55;;;;;;;48.00;25.30;;;-0.70;1.00;;;;;;5277040;27;20027;-43
2024/01/23 04:12:28;;;;;;;49.83;25.15;;;-0.70;1.00;;;;;;5301813;27;20053;-44
2024/01/23 04:15:06;;;;;;;47.40;23.83;;;-0.80;1.00;;;;;;5282933;27;20042;-44
2024/01/23 04:17:40;;;;;;;52.65;24.80;;;-0.80;1.00;;;;;;5303837;27;20215;-43
2024/01/23 04:20:16;;;;;;;54.40;28.40;;;-0.70;1.00;;;;;;5294957;27;20039;-44
2024/01/23 04:22:50;;;;;;;56.35;27.35;;;-0.80;1.00;;;;;;5295752;27;20027;-43
2024/01/23 04:25:21;;;;;;;;;;;-0.90;1.00;;;;;;5295943;27;20024;-44
2024/01/23 04:27:53;;;;;;;43.55;22.45;;;-0.80;1.00;;;;;;5285734;27;19918;-43
2024/01/23 04:30:26;;;;;;;52.08;24.85;;;-0.90;1.00;;;;;;5271636;27;20285;-43
2024/01/23 04:32:59;;;;;;;57.00;26.60;;;-0.90;1.00;;;;;;5299158;27;20382;-44
2024/01/23 04:35:32;;;;;;;57.25;27.23;;;-0.90;1.00;;;;;;5295840;27;20031;-43
2024/01/23 04:38:03;;;;;;;51.42;25.52;;;-0.90;1.00;;;;;;5286047;27;20035;-43
2024/01/23 04:40:34;;;;;;;65.03;28.70;;;-0.80;1.00;;;;;;5264025;28;20027;-43
2024/01/23 04:43:06;;;;;;;55.33;27.73;;;-0.90;1.00;;;;;;5282776;27;20027;-43
2024/01/23 04:45:39;;;;;;;53.50;29.48;;;-0.90;1.00;;;;;;5268190;27;20049;-43
2024/01/23 04:48:11;;;;;;;64.65;31.60;;;-0.90;1.00;;;;;;5295960;27;20034;-43
2024/01/23 04:50:42;;;;;;;51.55;28.35;;;-0.80;1.00;;;;;;5300796;27;20243;-43
2024/01/23 04:53:15;;;;;;;56.67;26.55;;;-0.90;1.00;;;;;;5291997;27;20342;-43
2024/01/23 04:55:47;;;;;;;56.50;25.60;;;-0.90;1.00;;;;;;5267307;27;20208;-43
2024/01/23 04:58:22;;;;;;;57.67;27.77;;;-0.80;1.00;;;;;;5302389;27;20041;-42
2024/01/23 05:00:54;;;;;;;55.08;27.13;;;-0.90;1.00;;;;;;5287668;27;20239;-43
2024/01/23 05:03:26;;;;;;;56.53;27.95;;;-0.90;1.00;;;;;;5296735;28;20030;-44
2024/01/23 05:05:58;;;;;;;52.38;26.48;;;-1.00;1.00;;;;;;5284367;28;20289;-44
2024/01/23 05:08:29;;;;;;;53.83;27.23;;;-1.10;1.00;;;;;;5300640;28;20265;-43
2024/01/23 05:11:03;;;;;;;60.15;28.92;;;-1.00;1.00;;;;;;5302722;28;20269;-43
2024/01/23 05:13:34;;;;;;;57.03;25.95;;;-1.00;1.00;;;;;;5274402;28;20229;-44
2024/01/23 05:16:09;;;;;;;56.63;27.45;;;-0.80;1.00;;;;;;5286998;28;20339;-43
2024/01/23 05:18:42;;;;;;;;;;;-0.70;1.00;;;;;;5285074;27;20024;-43
2024/01/23 05:21:15;;;;;;;55.53;26.77;;;-0.50;1.00;;;;;;5302059;27;19917;-43
2024/01/23 05:23:47;;;;;;;55.72;25.98;;;-0.30;1.00;;;;;;5290838;27;20061;-44
2024/01/23 05:26:18;;;;;;;55.42;29.73;;;-0.20;1.00;;;;;;5290925;27;20031;-43
2024/01/23 05:28:55;;;;;;;63.67;29.60;;;-0.20;1.00;;;;;;5267409;28;20023;-44
2024/01/23 05:31:26;;;;;;;57.75;29.08;;;-0.10;1.00;;;;;;5284901;27;20188;-43
2024/01/23 05:34:00;;;;;;;69.85;30.58;;;-0.10;1.00;;;;;;5282180;28;20231;-43
2024/01/23 05:36:31;;;;;;;21.83;11.15;;;0.00;1.00;;;;;;5282743;28;20272;-43
2024/01/23 05:39:04;;;;;;;32.10;16.77;;;1.20;1.00;;;;;;5288056;28;20214;-42
2024/01/23 05:41:35;;;;;;;5.18;3.33;;;1.60;1.00;;;;;;5272065;28;20039;-43
2024/01/23 05:44:06;;;;;;;7.15;2.38;;;2.80;1.00;;;;;;5266063;27;20042;-42
2024/01/23 05:46:38;;;;;;;1.83;1.58;;;3.40;1.00;;;;;;5281139;27;20035;-41
2024/01/23 05:49:09;;;;;;;3.33;2.67;;;3.80;1.00;;;;;;5291761;27;20042;-41
2024/01/23 05:51:40;;;;;;;4.57;2.03;;;4.20;1.00;;;;;;5282282;28;20288;-41
2024/01/23 05:54:13;;;;;;;2.40;1.83;;;4.60;1.00;;;;;;5261010;28;20039;-43
2024/01/23 05:56:47;;;;;;;2.83;1.63;;;5.00;1.00;;;;;;5289706;28;20027;-44
2024/01/23 05:59:21;;;;;;;4.97;1.63;;;5.10;99.90;;;;;;5282781;27;20039;-45
2024/01/23 06:01:55;;;;;;;2.20;2.00;;;5.10;99.90;;;;;;5282148;28;20031;-44
2024/01/23 06:04:26;;;;;;;6.35;1.83;;;5.30;99.90;;;;;;5278832;27;20031;-45
2024/01/23 06:06:57;;;;;;;2.30;1.55;;;5.20;99.90;;;;;;5288875;27;20031;-44
2024/01/23 06:09:29;;;;;;;2.13;1.33;;;5.00;99.90;;;;;;5273068;27;20037;-44
2024/01/23 06:12:00;;;;;;;2.83;1.70;;;5.00;99.90;;;;;;5250972;27;20330;-44
2024/01/23 06:14:31;;;;;;;3.90;2.35;;;5.10;99.90;;;;;;5275473;27;20053;-44
2024/01/23 06:17:03;;;;;;;2.80;1.90;;;5.10;93.40;;;;;;5288564;27;20028;-44
2024/01/23 06:19:38;;;;;;;4.47;1.65;;;5.10;59.10;;;;;;5272343;27;20247;-44
2024/01/23 06:22:15;;;;;;;3.22;1.80;;;5.10;1.00;;;;;;5296609;27;20039;-43
2024/01/23 06:25:00;;;;;;;4.45;1.30;;;5.20;1.00;;;;;;5292171;27;20314;-44
2024/01/23 06:27:35;;;;;;;2.15;1.52;;;5.00;1.00;;;;;;5290801;27;20445;-43
2024/01/23 06:30:11;;;;;;;1.45;1.35;;;5.20;1.00;;;;;;5292256;27;20031;-42
2024/01/23 06:32:42;;;;;;;1.60;1.50;;;5.20;1.00;;;;;;5296129;27;20031;-41
2024/01/23 06:35:14;;;;;;;2.63;1.45;;;5.40;99.90;;;;;;5303070;27;20043;-42
2024/01/23 06:37:50;;;;;;;3.35;1.50;;;5.30;1.00;;;;;;5280371;27;20300;-42
2024/01/23 06:40:24;;;;;;;1.30;1.20;;;5.20;1.00;;;;;;5302073;27;20343;-42
2024/01/23 06:42:55;;;;;;;;;;;5.10;1.00;;;;;;5270628;27;20039;-42
2024/01/23 06:45:31;;;;;;;4.18;1.75;;;5.30;1.00;;;;;;5293223;27;20255;-42
2024/01/23 06:48:05;;;;;;;4.55;1.60;;;5.40;1.00;;;;;;5268993;27;20334;-42
2024/01/23 06:50:38;;;;;;;1.63;1.48;;;5.30;1.00;;;;;;5290129;27;20028;-42
2024/01/23 06:53:10;;;;;;;2.35;1.63;;;5.40;1.00;;;;;;5283579;27;20043;-42
2024/01/23 06:55:44;;;;;;;3.20;1.52;;;5.70;99.90;;;;;;5284351;27;20039;-43
2024/01/23 06:58:17;;;;;;;2.08;1.80;;;5.70;99.90;;;;;;5261201;28;20292;-42
2024/01/23 07:00:51;;;;;;;2.13;1.40;;;5.90;99.90;;;;;;5278385;27;20251;-43
2024/01/23 07:03:24;;;;;;;2.17;1.27;;;6.00;1.00;;;;;;5281814;27;20034;-43
2024/01/23 07:05:56;;;;;;;5.03;1.40;;;6.00;1.00;;;;;;5293369;27;20535;-43
2024/01/23 07:08:29;;;;;;;1.52;1.30;;;6.20;99.90;;;;;;5279458;28;20247;-43
2024/01/23 07:11:03;;;;;;;1.48;0.93;;;6.20;99.90;;;;;;5289197;27;20019;-43
2024/01/23 07:13:34;;;;;;;2.53;1.15;;;6.20;1.00;;;;;;5283104;27;20031;-44
2024/01/23 07:16:06;;;;;;;1.42;1.20;;;6.20;1.00;;;;;;5283735;27;20018;-43
2024/01/23 07:18:38;;;;;;;1.27;1.05;;;6.30;71.20;;;;;;5299161;27;20028;-44
2024/01/23 07:21:09;;;;;;;1.30;1.10;;;6.30;1.00;;;;;;5281105;27;20045;-44
2024/01/23 07:23:43;;;;;;;1.48;1.02;;;6.40;1.00;;;;;;5274243;28;20035;-45
2024/01/23 07:26:14;;;;;;;3.42;1.92;;;6.50;99.90;;;;;;5281386;27;20039;-44
2024/01/23 07:28:45;;;;;;;1.08;1.02;;;6.50;99.90;;;;;;5281527;27;20023;-45
2024/01/23 07:31:19;;;;;;;1.92;1.10;;;6.60;7.50;;;;;;5280692;27;20334;-45
2024/01/23 07:33:50;;;;;;;1.40;1.20;;;6.70;91.60;;;;;;5291440;27;20226;-45
2024/01/23 07:36:21;;;;;;;1.15;1.02;;;6.90;1.00;;;;;;5297984;27;20136;-45
2024/01/23 07:38:55;;;;;;;1.42;1.33;;;7.00;1.00;;;;;;5271853;28;20042;-46
2024/01/23 07:41:29;;;;;;;2.28;1.60;;;7.10;1.00;;;;;;5287459;27;20238;-47
2024/01/23 07:44:03;;;;;;;0.88;0.88;;;7.00;1.00;;;;;;5300223;27;20039;-48
2024/01/23 07:46:35;;;;;;;1.33;1.23;;;6.90;1.00;;;;;;5280456;27;20031;-49
2024/01/23 07:49:07;;;;;;;3.05;1.40;;;6.80;1.00;;;;;;5282518;27;20027;-49
2024/01/23 07:51:48;;;;;;;1.73;1.33;;;6.70;1.00;;;;;;5291035;27;20221;-50
2024/01/23 07:54:22;;;;;;;2.22;1.75;;;6.60;1.00;;;;;;5301421;27;20356;-49
2024/01/23 07:56:53;;;;;;;3.33;1.27;;;6.60;1.00;;;;;;5283072;27;20029;-49
2024/01/23 07:59:24;;;;;;;2.55;1.40;;;6.60;1.00;;;;;;5282247;27;20039;-49
2024/01/23 08:01:58;;;;;;;2.70;1.63;;;6.50;1.00;;;;;;5298135;27;20027;-49
2024/01/23 08:04:29;;;;;;;1.55;1.42;;;6.50;1.00;;;;;;5298100;27;20409;-49
2024/01/23 08:07:01;;;;;;;2.53;1.40;;;6.40;1.00;;;;;;5299935;27;20365;-49
2024/01/23 08:09:34;;;;;;;2.80;1.60;;;6.40;1.00;;;;;;5281629;27;20042;-49
2024/01/23 08:12:06;;;;;;;3.50;1.27;;;6.30;99.90;;;;;;5300835;27;20544;-49
2024/01/23 08:14:40;;;;;;;2.30;1.40;;;6.30;73.70;;;;;;5298997;27;20235;-49
2024/01/23 08:17:14;;;;;;;6.72;1.85;;;6.40;1.00;;;;;;5297674;27;20042;-48
2024/01/23 08:19:47;;;;;;;1.20;1.10;;;6.50;1.00;;;;;;5271513;28;20034;-49
2024/01/23 08:22:21;;;;;;;;;;;6.70;1.00;;;;;;5291227;27;20541;-49
2024/01/23 08:24:53;;;;;;;2.85;1.48;;;6.80;1.00;;;;;;5271056;27;19917;-50
2024/01/23 08:27:29;;;;;;;1.50;1.30;;;6.80;1.00;;;;;;5279298;28;20035;-49
2024/01/23 08:30:02;;;;;;;3.60;1.52;;;6.90;1.00;;;;;;5293086;27;20292;-49
2024/01/23 08:32:34;;;;;;;5.78;2.17;;;7.00;1.00;;;;;;5299656;27;20026;-49
2024/01/23 08:35:06;;;;;;;4.05;1.63;;;7.10;1.00;;;;;;5301110;27;20096;-49
2024/01/23 08:37:37;;;;;;;3.58;1.42;;;7.20;99.90;;;;;;5300815;27;20349;-49
2024/01/23 08:40:09;;;;;;;3.05;1.55;;;7.30;99.90;;;;;;5297822;27;20032;-49
2024/01/23 08:42:40;;;;;;;7.57;1.90;;;7.40;99.90;;;;;;5290730;27;20030;-49
2024/01/23 08:45:11;;;;;;;1.50;1.10;;;7.50;99.90;;;;;;5297003;27;20027;-50
2024/01/23 08:47:43;;;;;;;4.15;1.20;;;7.40;99.90;;;;;;5295951;27;20190;-50
2024/01/23 08:50:16;;;;;;;6.63;1.90;;;7.50;99.90;;;;;;5300351;27;20250;-50
2024/01/23 08:52:52;;;;;;;3.60;2.42;;;7.60;99.90;;;;;;5300868;27;20041;-50
2024/01/23 08:55:23;;;;;;;4.80;1.88;;;7.60;99.90;;;;;;5293659;27;20349;-50
2024/01/23 08:57:54;;;;;;;1.55;1.33;;;7.70;99.90;;;;;;5295434;27;20031;-47
2024/01/23 09:00:25;;;;;;;4.00;2.15;;;7.70;94.10;;;;;;5276737;28;20039;-45
2024/01/23 09:02:57;;;;;;;11.43;4.88;;;7.70;22.00;;;;;;5278315;28;20120;-43
2024/01/23 09:05:28;;;;;;;2.90;1.20;;;7.70;9.70;;;;;;5300796;28;20027;-41
2024/01/23 09:08:04;;;;;;;8.50;3.45;;;7.70;18.00;;;;;;5299463;28;20035;-42
2024/01/23 09:10:38;;;;;;;4.10;2.30;;;7.70;1.00;;;;;;5280969;28;20252;-42
2024/01/23 09:13:12;;;;;;;6.60;1.98;;;7.70;1.00;;;;;;5275938;28;20035;-42
2024/01/23 09:15:45;;;;;;;3.23;1.77;;;7.70;1.00;;;;;;5261702;28;20175;-42
2024/01/23 09:18:19;;;;;;;1.07;0.97;;;7.80;1.00;;;;;;5285841;27;20223;-42
2024/01/23 09:20:53;;;;;;;2.47;0.95;;;7.80;1.00;;;;;;5267603;28;20248;-42
2024/01/23 09:23:24;;;;;;;0.70;0.70;;;7.80;1.00;;;;;;5275436;28;20054;-42
2024/01/23 09:25:58;;;;;;;3.60;1.33;;;8.00;1.00;;;;;;5267170;28;20034;-42
2024/01/23 09:28:31;;;;;;;2.77;1.17;;;8.00;1.00;;;;;;5276888;28;20027;-42
2024/01/23 09:31:05;;;;;;;1.63;1.20;;;8.00;1.00;;;;;;5295697;28;20336;-42
2024/01/23 09:33:36;;;;;;;1.42;1.00;;;8.10;1.00;;;;;;5290797;28;20385;-42
2024/01/23 09:36:10;;;;;;;2.97;1.63;;;8.20;1.00;;;;;;5270310;28;20049;-42
2024/01/23 09:38:41;;;;;;;1.35;1.25;;;8.30;1.00;;;;;;5278875;28;20037;-42
2024/01/23 09:41:13;;;;;;;4.47;1.10;;;8.30;1.00;;;;;;5288284;27;20056;-42
2024/01/23 09:43:48;;;;;;;2.05;1.17;;;8.10;1.00;;;;;;5301157;27;20350;-42
2024/01/23 09:46:20;;;;;;;1.05;0.88;;;7.90;1.00;;;;;;5296815;27;20031;-42
2024/01/23 09:48:54;;;;;;;1.33;0.98;;;7.80;1.00;;;;;;5302851;27;20031;-42
2024/01/23 09:51:26;;;;;;;0.98;0.88;;;7.80;1.00;;;;;;5304509;27;20019;-42
2024/01/23 09:54:02;;;;;;;2.63;0.95;;;7.80;1.00;;;;;;5297918;27;20031;-42
2024/01/23 09:56:36;;;;;;;2.22;1.00;;;7.80;1.00;;;;;;5283864;27;20022;-43
2024/01/23 09:59:09;;;;;;;1.23;1.00;;;7.90;1.00;;;;;;5291371;27;20275;-42
2024/01/23 10:01:40;;;;;;;1.17;0.98;;;8.00;1.00;;;;;;5299758;27;20246;-42
2024/01/23 10:04:19;;;;;;;1.55;0.82;;;8.00;1.00;;;;;;5302798;27;20038;-42
2024/01/23 10:06:50;;;;;;;2.90;0.90;;;7.90;1.00;;;;;;5298154;27;20026;-43
2024/01/23 10:09:21;;;;;;;1.30;1.20;;;7.80;1.00;;;;;;5277559;27;20250;-42
2024/01/23 10:11:55;;;;;;;1.42;1.00;;;7.80;1.00;;;;;;5295123;27;20653;-43
2024/01/23 10:14:26;;;;;;;1.50;1.02;;;7.70;1.00;;;;;;5288565;27;20311;-42
2024/01/23 10:16:57;;;;;;;3.25;1.55;;;7.80;1.00;;;;;;5270062;27;20218;-41
2024/01/23 10:19:32;;;;;;;2.97;1.90;;;7.80;1.00;;;;;;5294992;27;20036;-42
2024/01/23 10:22:07;;;;;;;1.05;0.93;;;8.10;1.00;;;;;;5286927;27;20361;-42
2024/01/23 10:24:40;;;;;;;3.50;1.25;;;8.10;1.00;;;;;;5297109;27;20106;-42
2024/01/23 10:27:16;;;;;;;4.38;1.45;;;8.10;1.00;;;;;;5289896;27;20321;-42
2024/01/23 10:29:47;;;;;;;1.27;0.80;;;8.30;1.00;;;;;;5278511;27;20291;-41
2024/01/23 10:32:18;;;;;;;1.08;0.88;;;8.30;1.00;;;;;;5266811;27;20035;-42
2024/01/23 10:34:56;;;;;;;3.88;1.60;;;8.40;1.00;;;;;;5292421;27;20016;-42
2024/01/23 10:37:30;;;;;;;4.20;1.23;;;8.40;1.00;;;;;;5291052;27;20027;-43
2024/01/23 10:40:01;;;;;;;1.63;1.50;;;8.40;1.00;;;;;;5290746;27;20273;-43
2024/01/23 10:42:33;;;;;;;2.25;1.55;;;8.70;1.00;;;;;;5256546;28;20033;-43
2024/01/23 10:45:06;;;;;;;2.45;0.90;;;8.60;1.00;;;;;;5271789;27;20054;-42
2024/01/23 10:47:40;;;;;;;2.38;1.40;;;8.50;1.00;;;;;;5290217;27;20023;-42
2024/01/23 10:50:14;;;;;;;0.95;0.95;;;8.60;1.00;;;;;;5290565;27;20220;-42
2024/01/23 10:52:47;;;;;;;0.90;0.90;;;8.70;1.00;;;;;;5291813;27;20353;-43
2024/01/23 10:55:24;;;;;;;1.13;1.02;;;8.70;1.00;;;;;;5290707;27;20030;-42
2024/01/23 10:58:00;;;;;;;1.30;1.10;;;8.80;1.00;;;;;;5291092;27;20289;-43
2024/01/23 11:00:36;;;;;;;1.10;0.82;;;8.80;1.00;;;;;;5285698;27;20035;-43
2024/01/23 11:03:10;;;;;;;1.27;1.17;;;8.90;1.00;;;;;;5287420;27;20031;-42
2024/01/23 11:05:46;;;;;;;;;;;8.90;1.00;;;;;;5288539;27;20177;-42
2024/01/23 11:08:48;;;;;;;1.90;0.88;;;9.10;1.00;;;;;;5280703;27;19918;-42
2024/01/23 11:11:32;;;;;;;2.42;0.90;;;9.30;1.00;;;;;;5293074;27;20019;-43
2024/01/23 11:14:29;;;;;;;0.88;0.88;;;9.60;99.90;;;;;;5272540;27;20024;-43
2024/01/23 11:17:13;;;;;;;1.52;0.82;;;9.70;99.90;;;;;;5269104;27;20353;-42
2024/01/23 11:19:47;;;;;;;1.80;1.10;;;10.20;99.90;;;;;;5292305;27;20023;-42
2024/01/23 11:22:22;;;;;;;2.25;1.15;;;10.70;99.90;;;;;;5288841;27;20367;-41
2024/01/23 11:24:57;;;;;;;2.95;1.10;;;10.90;78.90;;;;;;5298753;27;20023;-42
2024/01/23 11:27:35;;;;;;;1.40;1.20;;;10.70;1.00;;;;;;5301443;27;20019;-42
2024/01/23 11:30:16;;;;;;;1.85;0.95;;;10.80;1.00;;;;;;5279600;27;20437;-41
2024/01/23 11:32:47;;;;;;;2.38;0.98;;;11.20;1.00;;;;;;5289889;27;20035;-41
2024/01/23 11:35:19;;;;;;;4.03;1.40;;;11.20;1.00;;;;;;5273847;27;20356;-41
2024/01/23 11:37:58;;;;;;;3.53;1.50;;;10.90;1.00;;;;;;5302650;27;20061;-41
2024/01/23 11:40:34;;;;;;;5.03;1.33;;;10.90;1.00;;;;;;5300695;27;20319;-41
2024/01/23 11:43:10;;;;;;;3.22;1.30;;;10.20;1.00;;;;;;5293208;27;20035;-41
2024/01/23 11:45:41;;;;;;;1.42;1.23;;;9.80;1.00;;;;;;5278248;27;20049;-41
2024/01/23 11:48:13;;;;;;;3.60;1.27;;;10.40;1.00;;;;;;5262801;28;20032;-41
2024/01/23 11:50:47;;;;;;;3.45;1.20;;;10.10;1.00;;;;;;5280470;28;20043;-41
2024/01/23 11:53:23;;;;;;;1.13;1.02;;;9.90;1.00;;;;;;5296016;27;20192;-41
2024/01/23 11:55:58;;;;;;;1.80;1.10;;;9.50;1.00;;;;;;5279422;27;20234;-42
2024/01/23 11:58:29;;;;;;;1.85;1.67;;;9.40;1.00;;;;;;5282469;27;20026;-42
2024/01/23 12:01:04;;;;;;;3.10;1.15;;;9.10;1.00;;;;;;5276037;27;20049;-42
2024/01/23 12:03:36;;;;;;;0.85;0.85;;;8.60;1.00;;;;;;5284819;27;20241;-40
2024/01/23 12:06:07;;;;;;;1.63;1.00;;;7.90;1.00;;;;;;5282783;27;20029;-40
2024/01/23 12:08:39;;;;;;;0.90;0.80;;;7.50;99.90;;;;;;5267364;27;20283;-40
2024/01/23 12:11:16;;;;;;;2.28;1.10;;;7.30;1.00;;;;;;5286353;27;20054;-40
2024/01/23 12:13:49;;;;;;;2.17;1.20;;;7.20;1.00;;;;;;5270786;27;20377;-41
2024/01/23 12:16:21;;;;;;;1.25;0.90;;;6.90;47.50;;;;;;5255751;28;20395;-41
2024/01/23 12:18:58;;;;;;;5.10;1.40;;;6.40;1.00;;;;;;5263980;27;20316;-42
2024/01/23 12:21:32;;;;;;;0.70;0.70;;;5.90;1.00;;;;;;5263734;27;20534;-49
2024/01/23 12:24:03;;;;;;;3.80;1.33;;;5.60;1.00;;;;;;5283061;27;20342;-50
2024/01/23 12:26:35;;;;;;;1.20;1.15;;;5.50;1.00;;;;;;5283852;27;20270;-47
2024/01/23 12:29:06;;;;;;;3.45;1.13;;;5.70;99.90;;;;;;5271207;27;20239;-46
2024/01/23 12:31:37;;;;;;;2.50;1.23;;;6.50;1.00;;;;;;5282571;27;20032;-45
2024/01/23 12:34:10;;;;;;;2.55;1.15;;;6.60;1.00;;;;;;5284868;27;20263;-43
2024/01/23 12:36:50;;;;;;;2.95;1.30;;;6.50;59.70;;;;;;5265395;27;20063;-43
2024/01/23 12:39:25;;;;;;;3.13;1.52;;;6.70;99.90;;;;;;5277200;27;20292;-42
2024/01/23 12:42:02;;;;;;;2.65;1.40;;;7.00;99.90;;;;;;5276850;27;20415;-42
2024/01/23 12:44:35;;;;;;;2.45;1.30;;;7.30;1.00;;;;;;5295760;27;20384;-41
2024/01/23 12:47:11;;;;;;;4.22;1.63;;;7.50;1.00;;;;;;5292516;27;20027;-40
2024/01/23 12:49:49;;;;;;;3.58;1.65;;;7.50;1.00;;;;;;5276152;27;20163;-42
2024/01/23 12:52:23;;;;;;;2.58;1.10;;;7.40;77.00;;;;;;5259663;27;20380;-40
2024/01/23 12:54:57;;;;;;;1.45;1.35;;;7.30;86.60;;;;;;5275618;27;20035;-41
2024/01/23 12:57:28;;;;;;;2.35;1.08;;;7.30;1.00;;;;;;5266379;28;20268;-41
2024/01/23 13:00:04;;;;;;;2.63;1.40;;;7.70;1.00;;;;;;5245403;28;20046;-41
2024/01/23 13:02:35;;;;;;;2.85;1.52;;;8.80;1.00;;;;;;5244927;28;20031;-41
2024/01/23 13:05:11;;;;;;;2.83;1.70;;;9.90;75.00;;;;;;5248698;28;20129;-41
2024/01/23 13:07:43;;;;;;;3.75;1.70;;;10.20;1.00;;;;;;5241947;28;20028;-41
2024/01/23 13:10:19;;;;;;;4.05;1.33;;;10.70;1.00;;;;;;5244786;28;20033;-41
2024/01/23 13:12:55;;;;;;;3.38;1.08;;;9.90;99.90;;;;;;5239949;28;20244;-41
2024/01/23 13:15:27;;;;;;;3.58;1.60;;;8.70;99.90;;;;;;5251128;28;20334;-41
2024/01/23 13:17:58;;;;;;;2.88;1.50;;;8.40;99.90;;;;;;5241705;28;20059;-41
2024/01/23 13:20:31;;;;;;;2.78;1.63;;;8.60;99.90;;;;;;5237728;28;20389;-41
2024/01/23 13:23:03;;;;;;;3.58;1.00;;;8.90;99.90;;;;;;5249500;28;20031;-41
2024/01/23 13:25:54;;;;;;;1.88;1.30;;;9.00;99.90;;;;;;5242946;28;20032;-41
2024/01/23 13:28:25;;;;;;;2.22;1.10;;;9.30;99.90;;;;;;5256202;28;20352;-41